createdAt,value
2022-11-15T00:00:45.525Z,29.20
2022-11-15T00:05:48.953Z,33.20
2022-11-15T00:10:52.362Z,28.90
2022-11-15T00:15:55.887Z,29.50
2022-11-15T00:20:59.326Z,30.10
2022-11-15T00:26:02.728Z,28.00
2022-11-15T00:31:06.139Z,27.70
2022-11-15T00:36:10.252Z,30.10
2022-11-15T00:46:17.094Z,30.20
2022-11-15T00:51:20.502Z,28.60
2022-11-15T00:56:23.909Z,29.00
2022-11-15T01:01:27.348Z,28.40
2022-11-15T01:06:31.996Z,26.80
2022-11-15T01:11:35.498Z,26.70
2022-11-15T01:16:38.893Z,27.50
2022-11-15T01:21:42.571Z,28.40
2022-11-15T01:26:45.966Z,26.90
2022-11-15T01:31:49.381Z,28.70
2022-11-15T01:36:52.800Z,28.70
2022-11-15T01:41:56.236Z,27.80
2022-11-15T01:46:59.646Z,29.30
2022-11-15T01:52:03.138Z,25.80
2022-11-15T01:57:06.610Z,24.70
2022-11-15T02:02:10.053Z,27.70
2022-11-15T02:07:13.521Z,25.00
2022-11-15T02:12:17.052Z,28.60
2022-11-15T02:17:20.458Z,25.30
2022-11-15T02:22:23.852Z,25.90
2022-11-15T02:27:27.262Z,23.40
2022-11-15T02:32:30.733Z,25.00
2022-11-15T02:37:34.134Z,23.30
2022-11-15T02:42:55.340Z,24.00
2022-11-15T02:47:58.885Z,22.20
2022-11-15T02:53:02.312Z,20.60
2022-11-15T02:58:05.722Z,22.10
2022-11-15T03:03:09.111Z,20.00
2022-11-15T03:08:12.651Z,20.00
2022-11-15T03:13:16.112Z,19.00
2022-11-15T03:18:19.541Z,17.90
2022-11-15T03:23:22.997Z,18.20
2022-11-15T03:28:26.412Z,16.90
2022-11-15T03:33:30.180Z,18.70
2022-11-15T03:38:34.117Z,17.60
2022-11-15T03:43:37.702Z,19.70
2022-11-15T03:48:41.102Z,18.40
2022-11-15T03:53:44.533Z,22.70
2022-11-15T03:58:48.044Z,19.90
2022-11-15T04:03:51.522Z,18.30
2022-11-15T04:08:54.933Z,18.50
2022-11-15T04:13:58.344Z,17.20
2022-11-15T04:19:19.484Z,18.40
2022-11-15T04:24:22.902Z,18.40
2022-11-15T04:29:38.768Z,19.10
2022-11-15T04:34:42.160Z,19.70
2022-11-15T04:39:45.700Z,20.50
2022-11-15T04:44:49.100Z,20.00
2022-11-15T04:49:52.593Z,19.20
2022-11-15T04:54:56.000Z,22.10
2022-11-15T04:59:59.444Z,24.30
2022-11-15T05:05:02.889Z,21.00
2022-11-15T05:10:06.290Z,22.40
2022-11-15T05:15:09.753Z,19.70
2022-11-15T05:20:13.156Z,18.20
2022-11-15T05:25:16.633Z,20.00
2022-11-15T05:30:20.186Z,23.30
2022-11-15T05:35:23.588Z,19.40
2022-11-15T05:40:27.096Z,20.50
2022-11-15T05:45:30.615Z,19.10
2022-11-15T05:50:34.029Z,24.00
2022-11-15T05:55:37.460Z,20.20
2022-11-15T06:00:40.920Z,23.60
2022-11-15T06:05:44.474Z,23.80
2022-11-15T06:10:47.868Z,24.80
2022-11-15T06:15:51.276Z,21.90
2022-11-15T06:20:54.679Z,21.00
2022-11-15T06:25:58.112Z,23.00
2022-11-15T06:31:01.668Z,22.20
2022-11-15T06:36:05.094Z,22.30
2022-11-15T06:41:08.530Z,22.70
2022-11-15T06:46:11.953Z,23.70
2022-11-15T06:51:15.470Z,23.50
2022-11-15T06:56:19.019Z,25.80
2022-11-15T07:01:23.339Z,25.10
2022-11-15T07:06:26.855Z,33.90
2022-11-15T07:11:30.290Z,30.30
2022-11-15T07:16:35.712Z,27.10
2022-11-15T07:21:39.194Z,27.60
2022-11-15T07:26:42.625Z,29.10
2022-11-15T07:31:46.283Z,27.30
2022-11-15T07:36:49.680Z,25.90
2022-11-15T07:42:13.509Z,30.20
2022-11-15T07:47:17.054Z,35.40
2022-11-15T07:52:20.469Z,51.70
2022-11-15T07:57:23.964Z,50.70
2022-11-15T08:02:30.446Z,63.40
2022-11-15T08:07:34.310Z,65.00
2022-11-15T08:12:37.782Z,71.80
2022-11-15T08:17:41.266Z,65.90
2022-11-15T08:22:44.661Z,58.00
2022-11-15T08:27:48.079Z,65.90
2022-11-15T08:32:51.496Z,58.40
2022-11-15T08:37:55.605Z,57.00
2022-11-15T08:42:59.740Z,54.40
2022-11-15T08:48:03.168Z,50.30
2022-11-15T08:53:06.604Z,50.60
2022-11-15T08:58:10.085Z,48.60
2022-11-15T09:03:13.609Z,51.90
2022-11-15T09:08:46.180Z,47.90
2022-11-15T09:13:40.387Z,43.90
2022-11-15T09:18:43.816Z,40.80
2022-11-15T09:23:47.227Z,46.80
2022-11-15T09:28:50.645Z,43.80
2022-11-15T09:33:54.063Z,49.40
2022-11-15T09:38:57.465Z,52.10
2022-11-15T09:44:00.869Z,52.60
2022-11-15T09:49:04.287Z,52.80
2022-11-15T09:59:32.535Z,46.60
2022-11-15T10:04:35.960Z,50.30
2022-11-15T10:09:39.382Z,49.70
2022-11-15T10:14:42.872Z,46.00
2022-11-15T10:19:47.301Z,46.70
2022-11-15T10:24:50.773Z,43.30
2022-11-15T10:29:54.189Z,45.30
2022-11-15T10:34:57.702Z,44.30
2022-11-15T10:40:01.141Z,45.00
2022-11-15T10:45:05.111Z,39.30
2022-11-15T10:50:08.634Z,42.10
2022-11-15T10:55:12.082Z,38.90
2022-11-15T11:00:15.518Z,45.30
2022-11-15T11:05:18.921Z,40.30
2022-11-15T11:10:49.956Z,33.70
2022-11-15T11:15:45.746Z,39.20
2022-11-15T11:20:49.162Z,38.60
2022-11-15T11:25:52.593Z,34.60
2022-11-15T11:30:55.997Z,37.90
2022-11-15T11:35:59.407Z,36.30
2022-11-15T11:41:03.274Z,38.80
2022-11-15T11:46:06.771Z,33.40
2022-11-15T11:51:10.198Z,35.90
2022-11-15T11:56:13.696Z,37.30
2022-11-15T12:01:17.365Z,34.90
2022-11-15T12:06:20.885Z,37.40
2022-11-15T12:11:24.304Z,38.20
2022-11-15T12:16:27.895Z,35.30
2022-11-15T12:21:33.329Z,36.40
2022-11-15T12:26:36.761Z,35.10
2022-11-15T12:31:40.188Z,32.70
2022-11-15T12:36:43.828Z,38.70
2022-11-15T12:41:47.240Z,35.60
2022-11-15T12:46:50.725Z,34.60
2022-11-15T12:51:54.368Z,38.40
2022-11-15T12:56:57.794Z,35.90
2022-11-15T13:02:01.226Z,41.10
2022-11-15T13:07:05.113Z,34.70
2022-11-15T13:12:08.721Z,34.40
2022-11-15T13:17:12.165Z,31.10
2022-11-15T13:22:33.449Z,30.30
2022-11-15T13:27:36.869Z,32.30
2022-11-15T13:32:40.740Z,30.10
2022-11-15T13:37:44.274Z,32.40
2022-11-15T13:42:47.707Z,30.60
2022-11-15T13:47:51.218Z,33.20
2022-11-15T13:52:54.668Z,34.20
2022-11-15T13:57:58.469Z,34.30
2022-11-15T14:08:22.952Z,35.60
2022-11-15T14:13:26.429Z,35.10
2022-11-15T14:18:30.080Z,36.30
2022-11-15T14:23:33.840Z,38.90
2022-11-15T14:28:40.126Z,39.80
2022-11-15T14:33:43.550Z,40.20
2022-11-15T14:38:47.001Z,38.40
2022-11-15T14:43:50.437Z,40.40
2022-11-15T14:48:53.854Z,41.40
2022-11-15T14:53:57.308Z,39.70
2022-11-15T14:59:01.182Z,41.50
2022-11-15T15:04:04.610Z,40.10
2022-11-15T15:09:08.014Z,37.60
2022-11-15T15:14:11.413Z,39.70
2022-11-15T15:19:15.153Z,50.30
2022-11-15T15:24:18.583Z,42.50
2022-11-15T15:29:21.984Z,43.10
2022-11-15T15:34:25.422Z,48.20
2022-11-15T15:39:28.825Z,41.90
2022-11-15T15:44:32.305Z,42.00
2022-11-15T15:49:35.719Z,47.10
2022-11-15T15:54:39.120Z,46.20
2022-11-15T15:59:43.075Z,43.40
2022-11-15T16:04:46.460Z,48.60
2022-11-15T16:10:02.300Z,45.70
2022-11-15T16:15:05.847Z,47.70
2022-11-15T16:20:09.275Z,53.50
2022-11-15T16:25:12.673Z,54.30
2022-11-15T16:30:16.109Z,50.90
2022-11-15T16:35:20.831Z,52.50
2022-11-15T16:40:24.305Z,50.80
2022-11-15T16:45:29.316Z,55.80
2022-11-15T16:50:35.095Z,53.70
2022-11-15T16:55:38.523Z,60.50
2022-11-15T17:00:41.958Z,55.50
2022-11-15T17:05:45.466Z,82.80
2022-11-15T17:10:48.884Z,62.40
2022-11-15T17:15:52.292Z,63.30
2022-11-15T17:20:55.708Z,61.20
2022-11-15T17:26:12.077Z,64.00
2022-11-15T17:31:22.507Z,60.80
2022-11-15T17:36:25.991Z,64.50
2022-11-15T17:41:29.395Z,65.50
2022-11-15T17:46:33.576Z,72.80
2022-11-15T17:56:40.402Z,69.90
2022-11-15T18:01:43.826Z,79.10
2022-11-15T18:06:47.322Z,69.10
2022-11-15T18:11:51.866Z,75.70
2022-11-15T18:16:55.285Z,73.10
2022-11-15T18:21:58.958Z,74.20
2022-11-15T18:27:02.390Z,73.20
2022-11-15T18:32:11.422Z,74.10
2022-11-15T18:37:14.911Z,75.90
2022-11-15T18:42:18.316Z,93.00
2022-11-15T18:47:21.728Z,94.00
2022-11-15T18:52:25.194Z,89.60
2022-11-15T18:57:28.710Z,84.20
2022-11-15T19:02:32.133Z,81.90
2022-11-15T19:07:37.213Z,84.80
2022-11-15T19:12:40.724Z,82.90
2022-11-15T19:17:44.191Z,85.20
2022-11-15T19:22:47.630Z,84.40
2022-11-15T19:27:51.153Z,80.80
2022-11-15T19:32:54.579Z,77.60
2022-11-15T19:37:57.967Z,81.40
2022-11-15T19:43:01.385Z,83.20
2022-11-15T19:48:04.819Z,88.30
2022-11-15T19:53:08.250Z,82.50
2022-11-15T19:58:11.723Z,82.10
2022-11-15T20:03:15.137Z,76.10
2022-11-15T20:08:18.600Z,83.50
2022-11-15T20:13:22.040Z,80.80
2022-11-15T20:18:25.445Z,80.10
2022-11-15T20:23:28.956Z,81.60
2022-11-15T20:28:32.711Z,77.10
2022-11-15T20:33:39.174Z,79.30
2022-11-15T20:38:43.383Z,75.40
2022-11-15T20:43:47.089Z,79.80
2022-11-15T20:48:50.502Z,82.80
2022-11-15T20:53:53.896Z,80.20
2022-11-15T20:58:57.731Z,85.10
2022-11-15T21:04:01.148Z,75.00
2022-11-15T21:09:22.180Z,78.60
2022-11-15T21:14:25.608Z,83.40
2022-11-15T21:19:35.570Z,81.60
2022-11-15T21:24:40.221Z,80.20
2022-11-15T21:29:45.726Z,83.40
2022-11-15T21:34:49.212Z,81.00
2022-11-15T21:39:52.606Z,79.50
2022-11-15T21:44:56.026Z,76.80
2022-11-15T21:49:59.481Z,80.30
2022-11-15T21:55:02.888Z,77.30
2022-11-15T22:00:24.063Z,78.40
2022-11-15T22:10:48.826Z,77.70
2022-11-15T22:15:53.666Z,77.90
2022-11-15T22:20:57.409Z,78.60
2022-11-15T22:26:01.023Z,79.60
2022-11-15T22:31:04.653Z,82.50
2022-11-15T22:36:08.263Z,81.80
2022-11-15T22:41:11.898Z,78.60
2022-11-15T22:46:15.517Z,77.60
2022-11-15T22:51:19.130Z,76.50
2022-11-15T22:56:22.674Z,81.20
2022-11-15T23:01:26.166Z,82.60
2022-11-15T23:06:29.671Z,84.90
2022-11-15T23:11:50.827Z,78.90
2022-11-15T23:16:54.446Z,80.30
2022-11-15T23:22:15.871Z,79.70
2022-11-15T23:27:20.755Z,78.70
2022-11-15T23:32:38.108Z,82.20
2022-11-15T23:37:41.611Z,81.60
2022-11-15T23:42:45.222Z,83.10
2022-11-15T23:47:48.853Z,79.80
2022-11-15T23:52:52.722Z,82.60
2022-11-15T23:57:56.351Z,80.10
